sensor_id;sensor_type;location;lat;lon;timestamp;temperature;humidity
25208;DHT22;13153;52.316;21.166;2024-01-10T00:02:00;-6.90;1.00
25208;DHT22;13153;52.316;21.166;2024-01-10T00:04:26;-6.90;1.00
25208;DHT22;13153;52.316;21.166;2024-01-10T00:06:51;-6.80;1.00
25208;DHT22;13153;52.316;21.166;2024-01-10T00:09:17;-6.80;1.00
25208;DHT22;13153;52.316;21.166;2024-01-10T00:11:43;-6.80;1.00
25208;DHT22;13153;52.316;21.166;2024-01-10T00:14:09;-6.90;1.00
25208;DHT22;13153;52.316;21.166;2024-01-10T00:16:35;-6.80;1.00
25208;DHT22;13153;52.316;21.166;2024-01-10T00:19:01;-6.80;1.00
25208;DHT22;13153;52.316;21.166;2024-01-10T00:21:27;-6.80;1.00
25208;DHT22;13153;52.316;21.166;2024-01-10T00:23:53;-6.80;1.00
25208;DHT22;13153;52.316;21.166;2024-01-10T00:26:19;-6.80;1.00
25208;DHT22;13153;52.316;21.166;2024-01-10T00:28:44;-6.90;1.00
25208;DHT22;13153;52.316;21.166;2024-01-10T00:31:12;-6.80;1.00
25208;DHT22;13153;52.316;21.166;2024-01-10T00:33:39;-6.80;1.00
25208;DHT22;13153;52.316;21.166;2024-01-10T00:36:05;-6.90;1.00
25208;DHT22;13153;52.316;21.166;2024-01-10T00:38:32;-6.90;1.00
25208;DHT22;13153;52.316;21.166;2024-01-10T00:40:58;-6.90;1.00
25208;DHT22;13153;52.316;21.166;2024-01-10T00:43:24;-6.90;1.00
25208;DHT22;13153;52.316;21.166;2024-01-10T00:45:50;-6.80;1.00
25208;DHT22;13153;52.316;21.166;2024-01-10T00:48:16;-6.90;1.00
25208;DHT22;13153;52.316;21.166;2024-01-10T00:50:43;-6.90;1.00
25208;DHT22;13153;52.316;21.166;2024-01-10T00:53:10;-6.90;1.00
25208;DHT22;13153;52.316;21.166;2024-01-10T00:55:35;-6.90;1.00
25208;DHT22;13153;52.316;21.166;2024-01-10T00:58:01;-6.90;1.00
25208;DHT22;13153;52.316;21.166;2024-01-10T01:00:27;-7.00;1.00
25208;DHT22;13153;52.316;21.166;2024-01-10T01:02:53;-6.90;1.00
25208;DHT22;13153;52.316;21.166;2024-01-10T01:05:19;-7.00;1.00
25208;DHT22;13153;52.316;21.166;2024-01-10T01:07:44;-7.00;1.00
25208;DHT22;13153;52.316;21.166;2024-01-10T01:10:10;-6.90;1.00
25208;DHT22;13153;52.316;21.166;2024-01-10T01:12:36;-6.90;1.00
25208;DHT22;13153;52.316;21.166;2024-01-10T01:15:02;-7.00;1.00
25208;DHT22;13153;52.316;21.166;2024-01-10T01:17:28;-7.00;1.00
25208;DHT22;13153;52.316;21.166;2024-01-10T01:19:54;-7.00;1.00
25208;DHT22;13153;52.316;21.166;2024-01-10T01:22:20;-7.00;1.00
25208;DHT22;13153;52.316;21.166;2024-01-10T01:24:45;-7.10;18.30
25208;DHT22;13153;52.316;21.166;2024-01-10T01:27:12;-7.00;52.20
25208;DHT22;13153;52.316;21.166;2024-01-10T01:29:37;-7.00;1.00
25208;DHT22;13153;52.316;21.166;2024-01-10T01:32:03;-7.10;1.00
25208;DHT22;13153;52.316;21.166;2024-01-10T01:34:29;-7.00;1.00
25208;DHT22;13153;52.316;21.166;2024-01-10T01:36:55;-7.10;1.00
25208;DHT22;13153;52.316;21.166;2024-01-10T01:39:21;-7.10;99.90
25208;DHT22;13153;52.316;21.166;2024-01-10T01:41:47;-7.10;99.90
25208;DHT22;13153;52.316;21.166;2024-01-10T01:44:13;-7.10;99.90
25208;DHT22;13153;52.316;21.166;2024-01-10T01:46:39;-7.10;99.90
25208;DHT22;13153;52.316;21.166;2024-01-10T01:49:10;-7.10;99.90
25208;DHT22;13153;52.316;21.166;2024-01-10T01:51:36;-7.10;99.90
25208;DHT22;13153;52.316;21.166;2024-01-10T01:54:06;-7.10;99.90
25208;DHT22;13153;52.316;21.166;2024-01-10T01:56:37;-7.10;99.90
25208;DHT22;13153;52.316;21.166;2024-01-10T01:59:07;-7.10;99.90
25208;DHT22;13153;52.316;21.166;2024-01-10T02:01:34;-7.10;99.90
25208;DHT22;13153;52.316;21.166;2024-01-10T02:04:03;-7.10;99.90
25208;DHT22;13153;52.316;21.166;2024-01-10T02:06:29;-7.10;99.90
25208;DHT22;13153;52.316;21.166;2024-01-10T02:08:56;-7.10;99.90
25208;DHT22;13153;52.316;21.166;2024-01-10T02:11:24;-7.10;99.90
25208;DHT22;13153;52.316;21.166;2024-01-10T02:13:51;-7.10;99.90
25208;DHT22;13153;52.316;21.166;2024-01-10T02:16:20;-7.20;99.90
25208;DHT22;13153;52.316;21.166;2024-01-10T02:18:48;-7.10;99.90
25208;DHT22;13153;52.316;21.166;2024-01-10T02:21:15;-7.10;99.90
25208;DHT22;13153;52.316;21.166;2024-01-10T02:23:41;-7.10;99.90
25208;DHT22;13153;52.316;21.166;2024-01-10T02:26:06;-7.20;99.90
25208;DHT22;13153;52.316;21.166;2024-01-10T02:28:32;-7.10;99.90
25208;DHT22;13153;52.316;21.166;2024-01-10T02:30:58;-7.10;99.90
25208;DHT22;13153;52.316;21.166;2024-01-10T02:33:25;-7.10;99.90
25208;DHT22;13153;52.316;21.166;2024-01-10T02:35:51;-7.10;99.90
25208;DHT22;13153;52.316;21.166;2024-01-10T02:38:16;-7.10;99.90
25208;DHT22;13153;52.316;21.166;2024-01-10T02:40:45;-7.00;99.90
25208;DHT22;13153;52.316;21.166;2024-01-10T02:43:11;-7.00;99.90
25208;DHT22;13153;52.316;21.166;2024-01-10T02:45:37;-7.00;99.90
25208;DHT22;13153;52.316;21.166;2024-01-10T02:48:02;-7.00;99.90
25208;DHT22;13153;52.316;21.166;2024-01-10T02:50:28;-7.00;1.00
25208;DHT22;13153;52.316;21.166;2024-01-10T02:52:54;-7.00;1.00
25208;DHT22;13153;52.316;21.166;2024-01-10T02:55:20;-7.00;1.00
25208;DHT22;13153;52.316;21.166;2024-01-10T02:57:45;-7.00;1.00
25208;DHT22;13153;52.316;21.166;2024-01-10T03:00:12;-7.00;1.00
25208;DHT22;13153;52.316;21.166;2024-01-10T03:02:38;-7.00;1.00
25208;DHT22;13153;52.316;21.166;2024-01-10T03:05:04;-7.10;1.00
25208;DHT22;13153;52.316;21.166;2024-01-10T03:07:30;-7.00;1.00
25208;DHT22;13153;52.316;21.166;2024-01-10T03:09:56;-7.10;1.00
25208;DHT22;13153;52.316;21.166;2024-01-10T03:12:22;-7.10;1.00
25208;DHT22;13153;52.316;21.166;2024-01-10T03:14:47;-7.00;80.70
25208;DHT22;13153;52.316;21.166;2024-01-10T03:17:13;-7.10;99.90
25208;DHT22;13153;52.316;21.166;2024-01-10T03:19:39;-7.10;99.90
25208;DHT22;13153;52.316;21.166;2024-01-10T03:22:09;-7.10;99.90
25208;DHT22;13153;52.316;21.166;2024-01-10T03:24:36;-7.10;99.90
25208;DHT22;13153;52.316;21.166;2024-01-10T03:27:03;-7.10;99.90
25208;DHT22;13153;52.316;21.166;2024-01-10T03:29:30;-7.10;99.90
25208;DHT22;13153;52.316;21.166;2024-01-10T03:31:56;-7.00;99.90
25208;DHT22;13153;52.316;21.166;2024-01-10T03:34:21;-7.00;99.90
25208;DHT22;13153;52.316;21.166;2024-01-10T03:36:47;-7.00;99.90
25208;DHT22;13153;52.316;21.166;2024-01-10T03:39:13;-7.10;1.00
25208;DHT22;13153;52.316;21.166;2024-01-10T03:41:39;-7.10;1.00
25208;DHT22;13153;52.316;21.166;2024-01-10T03:44:04;-7.10;1.00
25208;DHT22;13153;52.316;21.166;2024-01-10T03:46:30;-7.10;1.00
25208;DHT22;13153;52.316;21.166;2024-01-10T03:48:56;-7.10;1.00
25208;DHT22;13153;52.316;21.166;2024-01-10T03:51:22;-7.10;35.40
25208;DHT22;13153;52.316;21.166;2024-01-10T03:53:49;-7.10;1.00
25208;DHT22;13153;52.316;21.166;2024-01-10T03:56:15;-7.20;1.00
25208;DHT22;13153;52.316;21.166;2024-01-10T03:58:40;-7.20;1.00
25208;DHT22;13153;52.316;21.166;2024-01-10T04:01:08;-7.20;99.90
25208;DHT22;13153;52.316;21.166;2024-01-10T04:03:34;-7.20;99.90
25208;DHT22;13153;52.316;21.166;2024-01-10T04:06:02;-7.20;99.90
25208;DHT22;13153;52.316;21.166;2024-01-10T04:08:28;-7.20;1.00
25208;DHT22;13153;52.316;21.166;2024-01-10T04:10:54;-7.20;1.00
25208;DHT22;13153;52.316;21.166;2024-01-10T04:13:20;-7.20;1.00
25208;DHT22;13153;52.316;21.166;2024-01-10T04:15:46;-7.20;1.00
25208;DHT22;13153;52.316;21.166;2024-01-10T04:18:12;-7.20;99.90
25208;DHT22;13153;52.316;21.166;2024-01-10T04:20:37;-7.20;1.00
25208;DHT22;13153;52.316;21.166;2024-01-10T04:23:03;-7.20;1.00
25208;DHT22;13153;52.316;21.166;2024-01-10T04:25:29;-7.20;99.90
25208;DHT22;13153;52.316;21.166;2024-01-10T04:27:55;-7.30;99.90
25208;DHT22;13153;52.316;21.166;2024-01-10T04:30:22;-7.30;99.90
25208;DHT22;13153;52.316;21.166;2024-01-10T04:32:48;-7.30;1.00
25208;DHT22;13153;52.316;21.166;2024-01-10T04:35:14;-7.30;1.00
25208;DHT22;13153;52.316;21.166;2024-01-10T04:37:40;-7.30;1.00
25208;DHT22;13153;52.316;21.166;2024-01-10T04:40:06;-7.30;99.90
25208;DHT22;13153;52.316;21.166;2024-01-10T04:42:32;-7.30;99.90
25208;DHT22;13153;52.316;21.166;2024-01-10T04:44:58;-7.40;99.90
25208;DHT22;13153;52.316;21.166;2024-01-10T04:47:23;-7.40;99.90
25208;DHT22;13153;52.316;21.166;2024-01-10T04:49:49;-7.40;99.90
25208;DHT22;13153;52.316;21.166;2024-01-10T04:52:15;-7.40;99.90
25208;DHT22;13153;52.316;21.166;2024-01-10T04:54:41;-7.40;1.00
25208;DHT22;13153;52.316;21.166;2024-01-10T04:57:07;-7.40;99.90
25208;DHT22;13153;52.316;21.166;2024-01-10T04:59:35;-7.40;99.90
25208;DHT22;13153;52.316;21.166;2024-01-10T05:02:01;-7.40;1.00
25208;DHT22;13153;52.316;21.166;2024-01-10T05:04:27;-7.40;1.00
25208;DHT22;13153;52.316;21.166;2024-01-10T05:06:52;-7.40;1.00
25208;DHT22;13153;52.316;21.166;2024-01-10T05:09:18;-7.40;1.00
25208;DHT22;13153;52.316;21.166;2024-01-10T05:11:44;-7.40;1.00
25208;DHT22;13153;52.316;21.166;2024-01-10T05:14:16;-7.40;28.40
25208;DHT22;13153;52.316;21.166;2024-01-10T05:16:42;-7.40;99.90
25208;DHT22;13153;52.316;21.166;2024-01-10T05:19:07;-7.40;99.90
25208;DHT22;13153;52.316;21.166;2024-01-10T05:21:34;-7.40;99.90
25208;DHT22;13153;52.316;21.166;2024-01-10T05:24:00;-7.40;99.90
25208;DHT22;13153;52.316;21.166;2024-01-10T05:26:26;-7.40;99.90
25208;DHT22;13153;52.316;21.166;2024-01-10T05:28:51;-7.40;1.00
25208;DHT22;13153;52.316;21.166;2024-01-10T05:31:17;-7.40;1.00
25208;DHT22;13153;52.316;21.166;2024-01-10T05:33:43;-7.40;1.00
25208;DHT22;13153;52.316;21.166;2024-01-10T05:36:09;-7.40;1.00
25208;DHT22;13153;52.316;21.166;2024-01-10T05:38:38;-7.40;1.00
25208;DHT22;13153;52.316;21.166;2024-01-10T05:41:05;-7.50;1.00
25208;DHT22;13153;52.316;21.166;2024-01-10T05:43:31;-7.50;1.00
25208;DHT22;13153;52.316;21.166;2024-01-10T05:45:57;-7.50;1.00
25208;DHT22;13153;52.316;21.166;2024-01-10T05:48:24;-7.50;99.90
25208;DHT22;13153;52.316;21.166;2024-01-10T05:50:50;-7.50;1.00
25208;DHT22;13153;52.316;21.166;2024-01-10T05:53:16;-7.50;1.00
25208;DHT22;13153;52.316;21.166;2024-01-10T05:55:43;-7.50;1.00
25208;DHT22;13153;52.316;21.166;2024-01-10T05:58:10;-7.60;98.80
25208;DHT22;13153;52.316;21.166;2024-01-10T06:00:36;-7.60;99.90
25208;DHT22;13153;52.316;21.166;2024-01-10T06:03:02;-7.50;1.00
25208;DHT22;13153;52.316;21.166;2024-01-10T06:05:28;-7.50;1.00
25208;DHT22;13153;52.316;21.166;2024-01-10T06:07:54;-7.50;1.00
25208;DHT22;13153;52.316;21.166;2024-01-10T06:10:19;-7.50;69.10
25208;DHT22;13153;52.316;21.166;2024-01-10T06:12:45;-7.50;99.90
25208;DHT22;13153;52.316;21.166;2024-01-10T06:15:11;-7.50;99.90
25208;DHT22;13153;52.316;21.166;2024-01-10T06:17:37;-7.50;99.90
25208;DHT22;13153;52.316;21.166;2024-01-10T06:20:04;-7.50;99.90
25208;DHT22;13153;52.316;21.166;2024-01-10T06:22:32;-7.40;1.00
25208;DHT22;13153;52.316;21.166;2024-01-10T06:24:58;-7.40;99.90
25208;DHT22;13153;52.316;21.166;2024-01-10T06:27:24;-7.40;99.90
25208;DHT22;13153;52.316;21.166;2024-01-10T06:29:50;-7.40;99.90
25208;DHT22;13153;52.316;21.166;2024-01-10T06:32:15;-7.40;99.90
25208;DHT22;13153;52.316;21.166;2024-01-10T06:34:41;-7.40;99.90
25208;DHT22;13153;52.316;21.166;2024-01-10T06:37:07;-7.50;99.90
25208;DHT22;13153;52.316;21.166;2024-01-10T06:39:33;-7.50;99.90
25208;DHT22;13153;52.316;21.166;2024-01-10T06:42:00;-7.50;99.90
25208;DHT22;13153;52.316;21.166;2024-01-10T06:44:25;-7.40;99.90
25208;DHT22;13153;52.316;21.166;2024-01-10T06:46:53;-7.40;99.90
25208;DHT22;13153;52.316;21.166;2024-01-10T06:49:19;-7.40;1.00
25208;DHT22;13153;52.316;21.166;2024-01-10T06:51:44;-7.40;1.00
25208;DHT22;13153;52.316;21.166;2024-01-10T06:54:10;-7.40;1.00
25208;DHT22;13153;52.316;21.166;2024-01-10T06:56:36;-7.40;1.00
25208;DHT22;13153;52.316;21.166;2024-01-10T06:59:02;-7.40;1.00
25208;DHT22;13153;52.316;21.166;2024-01-10T07:01:28;-7.30;1.00
25208;DHT22;13153;52.316;21.166;2024-01-10T07:03:54;-7.30;1.00
25208;DHT22;13153;52.316;21.166;2024-01-10T07:06:20;-7.30;1.00
25208;DHT22;13153;52.316;21.166;2024-01-10T07:08:48;-7.30;1.00
25208;DHT22;13153;52.316;21.166;2024-01-10T07:11:18;-7.20;1.00
25208;DHT22;13153;52.316;21.166;2024-01-10T07:13:47;-7.20;1.00
25208;DHT22;13153;52.316;21.166;2024-01-10T07:16:13;-7.10;1.00
25208;DHT22;13153;52.316;21.166;2024-01-10T07:18:42;-7.20;1.00
25208;DHT22;13153;52.316;21.166;2024-01-10T07:21:09;-7.20;1.00
25208;DHT22;13153;52.316;21.166;2024-01-10T07:23:36;-7.20;1.00
25208;DHT22;13153;52.316;21.166;2024-01-10T07:26:05;-7.10;1.00
25208;DHT22;13153;52.316;21.166;2024-01-10T07:28:31;-7.10;1.00
25208;DHT22;13153;52.316;21.166;2024-01-10T07:30:58;-7.00;1.00
25208;DHT22;13153;52.316;21.166;2024-01-10T07:33:24;-7.10;1.00
25208;DHT22;13153;52.316;21.166;2024-01-10T07:35:49;-7.00;1.00
25208;DHT22;13153;52.316;21.166;2024-01-10T07:38:15;-6.90;1.00
25208;DHT22;13153;52.316;21.166;2024-01-10T07:40:41;-7.00;1.00
25208;DHT22;13153;52.316;21.166;2024-01-10T07:43:07;-7.00;1.00
25208;DHT22;13153;52.316;21.166;2024-01-10T07:45:33;-6.90;1.00
25208;DHT22;13153;52.316;21.166;2024-01-10T07:47:59;-6.90;1.00
25208;DHT22;13153;52.316;21.166;2024-01-10T07:50:25;-6.90;1.00
25208;DHT22;13153;52.316;21.166;2024-01-10T07:52:53;-6.90;1.00
25208;DHT22;13153;52.316;21.166;2024-01-10T07:55:19;-6.90;1.00
25208;DHT22;13153;52.316;21.166;2024-01-10T07:57:44;-6.90;1.00
25208;DHT22;13153;52.316;21.166;2024-01-10T08:00:10;-6.80;1.00
25208;DHT22;13153;52.316;21.166;2024-01-10T08:02:40;-6.80;1.00
25208;DHT22;13153;52.316;21.166;2024-01-10T08:05:06;-6.70;1.00
25208;DHT22;13153;52.316;21.166;2024-01-10T08:07:36;-6.70;1.00
25208;DHT22;13153;52.316;21.166;2024-01-10T08:10:11;-6.70;1.00
25208;DHT22;13153;52.316;21.166;2024-01-10T08:12:39;-6.80;1.00
25208;DHT22;13153;52.316;21.166;2024-01-10T08:15:07;-6.80;1.00
25208;DHT22;13153;52.316;21.166;2024-01-10T08:17:33;-6.80;1.00
25208;DHT22;13153;52.316;21.166;2024-01-10T08:19:59;-6.70;1.00
25208;DHT22;13153;52.316;21.166;2024-01-10T08:22:29;-6.80;3.30
25208;DHT22;13153;52.316;21.166;2024-01-10T08:24:55;-6.70;5.40
25208;DHT22;13153;52.316;21.166;2024-01-10T08:27:21;-6.70;7.10
25208;DHT22;13153;52.316;21.166;2024-01-10T08:29:47;-6.70;10.90
25208;DHT22;13153;52.316;21.166;2024-01-10T08:32:12;-6.60;14.30
25208;DHT22;13153;52.316;21.166;2024-01-10T08:34:38;-6.60;11.50
25208;DHT22;13153;52.316;21.166;2024-01-10T08:37:04;-6.60;10.50
25208;DHT22;13153;52.316;21.166;2024-01-10T08:39:30;-6.60;1.90
25208;DHT22;13153;52.316;21.166;2024-01-10T08:41:56;-6.50;1.00
25208;DHT22;13153;52.316;21.166;2024-01-10T08:44:23;-6.50;2.20
25208;DHT22;13153;52.316;21.166;2024-01-10T08:46:49;-6.50;1.00
25208;DHT22;13153;52.316;21.166;2024-01-10T08:49:16;-6.50;1.00
25208;DHT22;13153;52.316;21.166;2024-01-10T08:51:42;-6.50;1.00
25208;DHT22;13153;52.316;21.166;2024-01-10T08:54:09;-6.50;1.00
25208;DHT22;13153;52.316;21.166;2024-01-10T08:56:35;-6.40;1.00
25208;DHT22;13153;52.316;21.166;2024-01-10T08:59:00;-6.40;1.00
25208;DHT22;13153;52.316;21.166;2024-01-10T09:01:26;-6.40;1.00
25208;DHT22;13153;52.316;21.166;2024-01-10T09:03:52;-6.30;1.00
25208;DHT22;13153;52.316;21.166;2024-01-10T09:06:18;-6.30;1.00
25208;DHT22;13153;52.316;21.166;2024-01-10T09:08:43;-6.20;1.00
25208;DHT22;13153;52.316;21.166;2024-01-10T09:11:09;-6.10;1.00
25208;DHT22;13153;52.316;21.166;2024-01-10T09:13:35;-6.10;1.00
25208;DHT22;13153;52.316;21.166;2024-01-10T09:16:03;-6.00;1.00
25208;DHT22;13153;52.316;21.166;2024-01-10T09:18:29;-6.00;1.00
25208;DHT22;13153;52.316;21.166;2024-01-10T09:20:55;-6.00;1.00
25208;DHT22;13153;52.316;21.166;2024-01-10T09:23:21;-6.00;1.00
25208;DHT22;13153;52.316;21.166;2024-01-10T09:25:47;-6.00;1.00
25208;DHT22;13153;52.316;21.166;2024-01-10T09:28:13;-6.00;1.00
25208;DHT22;13153;52.316;21.166;2024-01-10T09:30:39;-6.00;1.00
25208;DHT22;13153;52.316;21.166;2024-01-10T09:33:05;-6.00;1.00
25208;DHT22;13153;52.316;21.166;2024-01-10T09:35:30;-6.00;1.00
25208;DHT22;13153;52.316;21.166;2024-01-10T09:37:56;-6.00;1.00
25208;DHT22;13153;52.316;21.166;2024-01-10T09:40:22;-6.00;1.00
25208;DHT22;13153;52.316;21.166;2024-01-10T09:42:51;-5.90;1.00
25208;DHT22;13153;52.316;21.166;2024-01-10T09:45:17;-5.90;1.00
25208;DHT22;13153;52.316;21.166;2024-01-10T09:47:49;-5.90;1.00
25208;DHT22;13153;52.316;21.166;2024-01-10T09:50:17;-5.80;1.00
25208;DHT22;13153;52.316;21.166;2024-01-10T09:52:56;-5.80;1.00
25208;DHT22;13153;52.316;21.166;2024-01-10T09:55:30;-5.80;1.00
25208;DHT22;13153;52.316;21.166;2024-01-10T09:58:04;-5.80;1.00
25208;DHT22;13153;52.316;21.166;2024-01-10T10:00:33;-5.80;1.00
25208;DHT22;13153;52.316;21.166;2024-01-10T10:03:02;-5.80;1.00
25208;DHT22;13153;52.316;21.166;2024-01-10T10:05:30;-5.70;1.00
25208;DHT22;13153;52.316;21.166;2024-01-10T10:07:59;-5.70;1.00
25208;DHT22;13153;52.316;21.166;2024-01-10T10:10:25;-5.70;1.00
25208;DHT22;13153;52.316;21.166;2024-01-10T10:12:52;-5.70;1.00
25208;DHT22;13153;52.316;21.166;2024-01-10T10:15:22;-5.70;1.00
25208;DHT22;13153;52.316;21.166;2024-01-10T10:17:50;-5.70;1.00
25208;DHT22;13153;52.316;21.166;2024-01-10T10:20:25;-5.80;1.00
25208;DHT22;13153;52.316;21.166;2024-01-10T10:23:05;-5.80;1.00
25208;DHT22;13153;52.316;21.166;2024-01-10T10:25:37;-5.80;1.00
25208;DHT22;13153;52.316;21.166;2024-01-10T10:28:08;-5.80;1.00
25208;DHT22;13153;52.316;21.166;2024-01-10T10:30:34;-5.80;1.00
25208;DHT22;13153;52.316;21.166;2024-01-10T10:33:02;-5.80;1.00
25208;DHT22;13153;52.316;21.166;2024-01-10T10:35:28;-5.70;1.00
25208;DHT22;13153;52.316;21.166;2024-01-10T10:37:54;-5.60;1.00
25208;DHT22;13153;52.316;21.166;2024-01-10T10:40:21;-5.60;1.00
25208;DHT22;13153;52.316;21.166;2024-01-10T10:42:56;-5.60;1.00
25208;DHT22;13153;52.316;21.166;2024-01-10T10:45:22;-5.60;1.00
25208;DHT22;13153;52.316;21.166;2024-01-10T10:47:59;-5.60;1.00
25208;DHT22;13153;52.316;21.166;2024-01-10T10:50:28;-5.60;1.00
25208;DHT22;13153;52.316;21.166;2024-01-10T10:52:59;-5.50;1.00
25208;DHT22;13153;52.316;21.166;2024-01-10T10:55:29;-5.40;1.00
25208;DHT22;13153;52.316;21.166;2024-01-10T10:57:56;-5.40;1.00
25208;DHT22;13153;52.316;21.166;2024-01-10T11:00:22;-5.30;1.00
25208;DHT22;13153;52.316;21.166;2024-01-10T11:02:56;-5.30;1.00
25208;DHT22;13153;52.316;21.166;2024-01-10T11:05:25;-5.20;1.00
25208;DHT22;13153;52.316;21.166;2024-01-10T11:07:53;-5.10;1.00
25208;DHT22;13153;52.316;21.166;2024-01-10T11:10:25;-5.10;1.00
25208;DHT22;13153;52.316;21.166;2024-01-10T11:21:34;-4.70;1.00
25208;DHT22;13153;52.316;21.166;2024-01-10T11:24:06;-4.70;1.00
25208;DHT22;13153;52.316;21.166;2024-01-10T11:26:39;-4.60;1.00
25208;DHT22;13153;52.316;21.166;2024-01-10T11:29:05;-4.70;1.00
25208;DHT22;13153;52.316;21.166;2024-01-10T11:31:32;-4.60;1.00
25208;DHT22;13153;52.316;21.166;2024-01-10T11:34:00;-4.60;1.00
25208;DHT22;13153;52.316;21.166;2024-01-10T11:36:27;-4.60;1.00
25208;DHT22;13153;52.316;21.166;2024-01-10T11:38:55;-4.60;1.00
25208;DHT22;13153;52.316;21.166;2024-01-10T11:41:26;-4.60;1.00
25208;DHT22;13153;52.316;21.166;2024-01-10T11:46:52;-4.60;1.00
25208;DHT22;13153;52.316;21.166;2024-01-10T11:49:20;-4.60;1.00
25208;DHT22;13153;52.316;21.166;2024-01-10T11:51:53;-4.50;1.00
25208;DHT22;13153;52.316;21.166;2024-01-10T11:57:26;-4.50;1.00
25208;DHT22;13153;52.316;21.166;2024-01-10T11:59:54;-4.50;1.00
25208;DHT22;13153;52.316;21.166;2024-01-10T12:02:23;-4.50;1.00
25208;DHT22;13153;52.316;21.166;2024-01-10T12:04:52;-4.50;1.00
25208;DHT22;13153;52.316;21.166;2024-01-10T12:07:20;-4.50;1.00
25208;DHT22;13153;52.316;21.166;2024-01-10T12:09:46;-4.50;1.00
25208;DHT22;13153;52.316;21.166;2024-01-10T12:12:13;-4.40;1.00
25208;DHT22;13153;52.316;21.166;2024-01-10T12:14:40;-4.50;1.00
25208;DHT22;13153;52.316;21.166;2024-01-10T12:17:08;-4.50;1.00
25208;DHT22;13153;52.316;21.166;2024-01-10T12:19:35;-4.50;1.00
25208;DHT22;13153;52.316;21.166;2024-01-10T12:22:03;-4.50;1.00
25208;DHT22;13153;52.316;21.166;2024-01-10T12:24:30;-4.50;1.00
25208;DHT22;13153;52.316;21.166;2024-01-10T12:26:57;-4.50;1.00
25208;DHT22;13153;52.316;21.166;2024-01-10T12:29:23;-4.50;1.00
25208;DHT22;13153;52.316;21.166;2024-01-10T12:31:50;-4.50;1.00
25208;DHT22;13153;52.316;21.166;2024-01-10T12:34:17;-4.40;1.00
25208;DHT22;13153;52.316;21.166;2024-01-10T12:36:43;-4.50;1.00
25208;DHT22;13153;52.316;21.166;2024-01-10T12:39:10;-4.50;1.00
25208;DHT22;13153;52.316;21.166;2024-01-10T12:41:37;-4.40;1.00
25208;DHT22;13153;52.316;21.166;2024-01-10T12:44:04;-4.40;1.00
25208;DHT22;13153;52.316;21.166;2024-01-10T12:46:32;-4.40;1.00
25208;DHT22;13153;52.316;21.166;2024-01-10T12:49:00;-4.40;1.00
25208;DHT22;13153;52.316;21.166;2024-01-10T12:51:34;-4.40;1.00
25208;DHT22;13153;52.316;21.166;2024-01-10T12:54:02;-4.40;1.00
25208;DHT22;13153;52.316;21.166;2024-01-10T12:56:29;-4.40;1.00
25208;DHT22;13153;52.316;21.166;2024-01-10T12:58:56;-4.50;1.00
25208;DHT22;13153;52.316;21.166;2024-01-10T13:01:23;-4.50;1.00
25208;DHT22;13153;52.316;21.166;2024-01-10T13:03:50;-4.50;1.00
25208;DHT22;13153;52.316;21.166;2024-01-10T13:06:17;-4.50;1.00
25208;DHT22;13153;52.316;21.166;2024-01-10T13:08:45;-4.50;1.00
25208;DHT22;13153;52.316;21.166;2024-01-10T13:11:11;-4.50;1.00
25208;DHT22;13153;52.316;21.166;2024-01-10T13:13:39;-4.60;1.00
25208;DHT22;13153;52.316;21.166;2024-01-10T13:16:07;-4.60;1.00
25208;DHT22;13153;52.316;21.166;2024-01-10T13:18:36;-4.60;1.00
25208;DHT22;13153;52.316;21.166;2024-01-10T13:21:03;-4.60;1.00
25208;DHT22;13153;52.316;21.166;2024-01-10T13:23:32;-4.50;1.00
25208;DHT22;13153;52.316;21.166;2024-01-10T13:25:58;-4.60;1.00
25208;DHT22;13153;52.316;21.166;2024-01-10T13:28:24;-4.60;1.00
25208;DHT22;13153;52.316;21.166;2024-01-10T13:30:50;-4.50;1.00
25208;DHT22;13153;52.316;21.166;2024-01-10T13:33:16;-4.60;1.00
25208;DHT22;13153;52.316;21.166;2024-01-10T13:35:42;-4.60;1.00
25208;DHT22;13153;52.316;21.166;2024-01-10T13:38:08;-4.60;1.00
25208;DHT22;13153;52.316;21.166;2024-01-10T13:40:35;-4.60;1.00
25208;DHT22;13153;52.316;21.166;2024-01-10T13:43:01;-4.50;1.00
25208;DHT22;13153;52.316;21.166;2024-01-10T13:45:28;-4.60;1.00
25208;DHT22;13153;52.316;21.166;2024-01-10T13:47:54;-4.60;1.00
25208;DHT22;13153;52.316;21.166;2024-01-10T13:50:20;-4.60;1.00
25208;DHT22;13153;52.316;21.166;2024-01-10T13:52:47;-4.60;1.00
25208;DHT22;13153;52.316;21.166;2024-01-10T13:55:12;-4.60;1.00
25208;DHT22;13153;52.316;21.166;2024-01-10T13:57:38;-4.60;1.00
25208;DHT22;13153;52.316;21.166;2024-01-10T14:00:06;-4.70;1.00
25208;DHT22;13153;52.316;21.166;2024-01-10T14:02:40;-4.70;1.10
25208;DHT22;13153;52.316;21.166;2024-01-10T14:05:09;-4.70;6.20
25208;DHT22;13153;52.316;21.166;2024-01-10T14:07:35;-4.70;15.30
25208;DHT22;13153;52.316;21.166;2024-01-10T14:10:01;-4.70;16.60
25208;DHT22;13153;52.316;21.166;2024-01-10T14:12:28;-4.70;23.90
25208;DHT22;13153;52.316;21.166;2024-01-10T14:14:57;-4.80;31.00
25208;DHT22;13153;52.316;21.166;2024-01-10T14:17:25;-4.80;39.30
25208;DHT22;13153;52.316;21.166;2024-01-10T14:19:51;-4.80;47.20
25208;DHT22;13153;52.316;21.166;2024-01-10T14:22:17;-4.80;50.10
25208;DHT22;13153;52.316;21.166;2024-01-10T14:24:44;-4.80;57.00
25208;DHT22;13153;52.316;21.166;2024-01-10T14:27:10;-4.80;55.60
25208;DHT22;13153;52.316;21.166;2024-01-10T14:29:36;-4.80;53.40
25208;DHT22;13153;52.316;21.166;2024-01-10T14:32:02;-4.80;62.70
25208;DHT22;13153;52.316;21.166;2024-01-10T14:34:29;-4.80;63.80
25208;DHT22;13153;52.316;21.166;2024-01-10T14:36:54;-4.80;58.70
25208;DHT22;13153;52.316;21.166;2024-01-10T14:39:20;-4.80;54.40
25208;DHT22;13153;52.316;21.166;2024-01-10T14:41:47;-4.80;50.60
25208;DHT22;13153;52.316;21.166;2024-01-10T14:44:12;-4.90;54.70
25208;DHT22;13153;52.316;21.166;2024-01-10T14:46:38;-4.90;65.00
25208;DHT22;13153;52.316;21.166;2024-01-10T14:49:04;-5.00;65.40
25208;DHT22;13153;52.316;21.166;2024-01-10T14:51:30;-4.90;72.20
25208;DHT22;13153;52.316;21.166;2024-01-10T14:53:55;-5.00;81.80
25208;DHT22;13153;52.316;21.166;2024-01-10T14:56:21;-4.90;86.80
25208;DHT22;13153;52.316;21.166;2024-01-10T14:58:48;-4.90;80.70
25208;DHT22;13153;52.316;21.166;2024-01-10T15:01:16;-4.90;76.60
25208;DHT22;13153;52.316;21.166;2024-01-10T15:03:43;-4.90;77.40
25208;DHT22;13153;52.316;21.166;2024-01-10T15:06:09;-5.00;77.70
25208;DHT22;13153;52.316;21.166;2024-01-10T15:08:34;-5.00;70.90
25208;DHT22;13153;52.316;21.166;2024-01-10T15:11:04;-5.00;68.90
25208;DHT22;13153;52.316;21.166;2024-01-10T15:13:30;-5.00;69.20
25208;DHT22;13153;52.316;21.166;2024-01-10T15:15:55;-5.00;71.50
25208;DHT22;13153;52.316;21.166;2024-01-10T15:18:21;-5.00;71.80
25208;DHT22;13153;52.316;21.166;2024-01-10T15:20:47;-5.00;74.60
25208;DHT22;13153;52.316;21.166;2024-01-10T15:23:13;-5.00;78.90
25208;DHT22;13153;52.316;21.166;2024-01-10T15:25:39;-5.00;87.60
25208;DHT22;13153;52.316;21.166;2024-01-10T15:28:05;-5.00;92.60
25208;DHT22;13153;52.316;21.166;2024-01-10T15:30:30;-5.00;95.00
25208;DHT22;13153;52.316;21.166;2024-01-10T15:32:59;-5.00;97.00
25208;DHT22;13153;52.316;21.166;2024-01-10T15:35:25;-5.00;99.90
25208;DHT22;13153;52.316;21.166;2024-01-10T15:37:51;-5.00;99.90